Fairbank, Illinois
Current Conditions -  °F | °C
As of 9:52 PM on Thursday 27 Nov 2014 (Local Time) from KMLI Reporting Station
Clear Clear  
Wind Chill: 13°   Ceiling: Unl
Heat Index: 13°   Visibility: 10mi
Dew Point:   Wind: 3mph
Humidity: 74%   Direction: 210°SSW
Pressure: 30.41"   Gusts: NA
Location:  41.4828°N, 90.1801°W
Report Text: KMLI 280352Z 21003KT 10SM CLR M11/M14 A3041 RMK AO2 SLP307 T11061144 $
Loading
Personal Weather Stations






























Interactive Weather Map New forecast layout! Learn more

10-Day Weather Forecast

Advertisements
Track Severe Weather on mobile